METAR Data
IDs: Format: Raw Decoded Include TAF

Data at: 1319 UTC 16 Oct 2018

PARC 161256Z AUTO 01008KT 10SM OVC050 M06/M08 A2960 RMK AO2 SLP079 T10561078 FZRANO
PARC 161156Z AUTO 01009KT 10SM OVC055 M06/M09 A2963 RMK AO2 SLP087 T10611089 11061 21094 57026 FZRANO
PARC 161056Z AUTO 03007KT 10SM OVC070 M07/M09 A2965 RMK AO2 SLP097 T10671094 FZRANO
PARC 160956Z AUTO 03008KT 10SM SCT100 M08/M11 A2968 RMK AO2 SLP110 T10781106 FZRANO
PARC 160856Z AUTO 36010KT 10SM BKN120 M08/M11 A2971 RMK AO2 SLP122 T10831106 410441139 58024 FZRANO
PARC 160756Z AUTO 01009KT 10SM CLR M08/M11 A2975 RMK AO2 SLP136 T10831111 FZRANO
PARC 160656Z AUTO 01009KT 10SM CLR M09/M12 A2976 RMK AO2 SLP144 T10941117 FZRANO
PARC 160456Z AUTO 01011KT 10SM CLR M09/M12 A2981 RMK AO2 SLP161 T10941117 FZRANO
PARC 160256Z AUTO 36009KT 10SM CLR M09/M11 A2985 RMK AO2 SLP174 T10891111 57011 FZRANO
PARC 160056Z AUTO 36008KT 10SM CLR M07/M10 A2987 RMK AO2 SLP180 T10721100 FZRANO
PARC 152156Z AUTO 01006KT 10SM FEW026 M06/M08 A2992 RMK AO2 SLP193 T10611078 FZRANO
PARC 152056Z AUTO 01005KT 10SM FEW023 M09/M10 A2992 RMK AO2 SLP195 T10891100 50000 FZRANO
PARC 152053Z AUTO 02005KT 10SM SCT023 M09/M11 A2993 RMK AO2 FZRANO
PARC 152026Z AUTO 36004KT 10SM BKN023 M09/M11 A2993 RMK AO2 FZRANO
PARC 151956Z AUTO 36005KT 10SM SCT023 M10/M12 A2993 RMK AO2 SLP198 T11001122 FZRANO
PARC 151856Z AUTO 36004KT 10SM CLR M11/M13 A2992 RMK AO2 SLP194 T11061128 FZRANO
PARC 151756Z AUTO VRB03KT 10SM CLR M13/M14 A2991 RMK AO2 SNB21E45 SLP190 P0000 60000 T11281144 11106 21139 53006 FZRANO
PARC 151656Z AUTO 01003KT 10SM CLR M13/M15 A2990 RMK AO2 SLP184 T11281150 FZRANO
PARC 151556Z AUTO 35007KT 10SM CLR M12/M14 A2989 RMK AO2 SLP179 T11221139 FZRANO
PARC 151537Z AUTO 36006KT 10SM SCT022 M13/M14 A2989 RMK AO2 FZRANO
PARC 151456Z AUTO 34006KT 10SM OVC022 M12/M14 A2989 RMK AO2 SLP181 T11221139 51000 FZRANO
PARC 151356Z AUTO 00000KT 10SM OVC024 M11/M13 A2989 RMK AO2 SLP179 T11111128 FZRANO
PARC 151327Z AUTO 35003KT 10SM BKN024 M11/M12 A2990 RMK AO2 FZRANO
PARC 151256Z AUTO 00000KT 10SM CLR M12/M13 A2990 RMK AO2 SLP181 T11171128 FZRANO
PARC 151156Z AUTO 27003KT 10SM CLR M12/M13 A2989 RMK AO2 SLP178 70011 T11171128 11022 21117 53010 FZRANO
PARC 151056Z AUTO 34003KT 10SM FEW029 M10/M11 A2988 RMK AO2 SLP172 T11001111 FZRANO
PARC 150956Z AUTO 34003KT 10SM CLR M08/M09 A2987 RMK AO2 SLP166 T10831094 FZRANO
PARC 150856Z AUTO 00000KT 10SM CLR M07/M08 A2986 RMK AO2 SLP163 T10721078 400221078 53016 FZRANO
PARC 150756Z AUTO 36003KT 10SM CLR M07/M08 A2984 RMK AO2 SLP155 T10671083 FZRANO
PARC 150656Z AUTO 34003KT 10SM CLR M04/M05 A2982 RMK AO2 SLP147 T10391050 FZRANO
PARC 150627Z AUTO 31003KT 7SM CLR M03/M03 A2981 RMK AO2 FZRANO
PARC 150620Z AUTO 32005KT 2 1/2SM BR CLR M03/M03 A2981 RMK AO2 FZRANO
PARC 150556Z AUTO 35006KT 10SM SCT040 M02/M03 A2981 RMK AO2 SLP143 60001 T10221028 10011 21028 51006 FZRANO
PARC 150552Z AUTO 35005KT 10SM SCT040 M02/M03 A2981 RMK AO2 FZRANO
PARC 150545Z AUTO 34006KT 2SM BR BKN040 M03/M03 A2981 RMK AO2 FZRANO
PARC 150543Z AUTO 35006KT 1SM BR BKN040 M03/M03 A2981 RMK AO2 FZRANO
PARC 150536Z AUTO 35004KT 1/2SM FZFG BKN038 M02/M03 A2981 RMK AO2 FZRANO
PARC 150533Z AUTO 36003KT 1SM BR OVC038 M02/M03 A2981 RMK AO2 FZRANO
PARC 150456Z AUTO 00000KT 10SM FEW035 SCT044 OVC060 M02/M02 A2980 RMK AO2 UPE26 SLP140 P0000 T10171022 FZRANO
PARC 150427Z AUTO 00000KT 10SM FEW004 OVC039 M01/M02 A2980 RMK AO2 UPE26 P0000 FZRANO
PARC 150356Z AUTO 00000KT 10SM UP OVC039 M01/M01 A2979 RMK AO2 UPB23SNE23 SLP135 P0000 T10061011 FZRANO
PARC 150256Z AUTO 36003KT 3SM -SN BR OVC044 00/M01 A2978 RMK AO2 SLP131 P0000 60001 T00001011 51007 FZRANO
PARC 150253Z AUTO 36004KT 2 1/2SM -SN BR OVC044 00/M01 A2978 RMK AO2 VIS 1 1/2V4 P0000 FZRANO
PARC 150206Z AUTO 35004KT 3SM -SN BR OVC042 00/M01 A2977 RMK AO2 P0000 FZRANO
PARC 150156Z AUTO 36003KT 1 3/4SM -SN BR FEW032 OVC042 00/M01 A2977 RMK AO2 VIS 1V4 SLP125 P0001 T00001011 FZRANO
PARC 150133Z AUTO 01003KT 1 1/2SM -SN BR SCT006 BKN033 OVC042 00/M01 A2976 RMK AO2 VIS 1V2 P0001 FZRANO
PARC 150126Z AUTO 02003KT 2SM -SN BR SCT006 BKN033 OVC042 00/M01 A2976 RMK AO2 VIS 1 1/4V3 P0000 FZRANO